sensor_id;sensor_type;location;lat;lon;timestamp;P1;durP1;ratioP1;P2;durP2;ratioP2
62268;SDS011;56517;51.634;5.566;2023-02-18T00:03:34;49.88;;;23.33;;
62268;SDS011;56517;51.634;5.566;2023-02-18T00:08:34;54.17;;;27.38;;
62268;SDS011;56517;51.634;5.566;2023-02-18T00:13:35;46.78;;;23.02;;
62268;SDS011;56517;51.634;5.566;2023-02-18T00:18:36;42.22;;;21.92;;
62268;SDS011;56517;51.634;5.566;2023-02-18T00:23:36;48.78;;;22.30;;
62268;SDS011;56517;51.634;5.566;2023-02-18T00:28:37;46.15;;;22.65;;
62268;SDS011;56517;51.634;5.566;2023-02-18T00:33:38;42.53;;;23.10;;
62268;SDS011;56517;51.634;5.566;2023-02-18T00:38:38;54.83;;;25.27;;
62268;SDS011;56517;51.634;5.566;2023-02-18T00:43:39;52.15;;;24.98;;
62268;SDS011;56517;51.634;5.566;2023-02-18T00:48:40;55.80;;;26.30;;
62268;SDS011;56517;51.634;5.566;2023-02-18T00:53:40;60.25;;;27.17;;
62268;SDS011;56517;51.634;5.566;2023-02-18T00:58:41;59.70;;;26.15;;
62268;SDS011;56517;51.634;5.566;2023-02-18T01:03:42;58.38;;;27.23;;
62268;SDS011;56517;51.634;5.566;2023-02-18T01:08:42;59.15;;;26.67;;
62268;SDS011;56517;51.634;5.566;2023-02-18T01:13:43;59.05;;;25.42;;
62268;SDS011;56517;51.634;5.566;2023-02-18T01:18:43;57.63;;;26.08;;
62268;SDS011;56517;51.634;5.566;2023-02-18T01:23:44;60.92;;;28.77;;
62268;SDS011;56517;51.634;5.566;2023-02-18T01:28:44;62.35;;;26.67;;
62268;SDS011;56517;51.634;5.566;2023-02-18T01:33:45;63.13;;;28.70;;
62268;SDS011;56517;51.634;5.566;2023-02-18T01:38:45;62.45;;;28.67;;
62268;SDS011;56517;51.634;5.566;2023-02-18T01:43:46;68.35;;;29.52;;
62268;SDS011;56517;51.634;5.566;2023-02-18T01:48:48;71.47;;;29.55;;
62268;SDS011;56517;51.634;5.566;2023-02-18T01:54:07;76.07;;;29.60;;
62268;SDS011;56517;51.634;5.566;2023-02-18T01:59:10;72.72;;;30.67;;
62268;SDS011;56517;51.634;5.566;2023-02-18T02:04:12;94.32;;;37.40;;
62268;SDS011;56517;51.634;5.566;2023-02-18T02:09:13;86.70;;;35.00;;
62268;SDS011;56517;51.634;5.566;2023-02-18T02:24:42;77.40;;;30.50;;
62268;SDS011;56517;51.634;5.566;2023-02-18T02:50:10;72.32;;;25.50;;
62268;SDS011;56517;51.634;5.566;2023-02-18T02:55:13;67.47;;;27.33;;
62268;SDS011;56517;51.634;5.566;2023-02-18T03:00:13;67.90;;;25.23;;
62268;SDS011;56517;51.634;5.566;2023-02-18T03:20:57;51.17;;;21.85;;
62268;SDS011;56517;51.634;5.566;2023-02-18T03:25:55;45.13;;;21.08;;
62268;SDS011;56517;51.634;5.566;2023-02-18T03:30:58;36.72;;;18.35;;
62268;SDS011;56517;51.634;5.566;2023-02-18T03:35:59;33.22;;;16.88;;
62268;SDS011;56517;51.634;5.566;2023-02-18T03:41:00;35.83;;;16.45;;
62268;SDS011;56517;51.634;5.566;2023-02-18T03:46:01;27.58;;;14.82;;
62268;SDS011;56517;51.634;5.566;2023-02-18T03:51:02;32.60;;;15.10;;
62268;SDS011;56517;51.634;5.566;2023-02-18T03:56:02;27.77;;;13.63;;
62268;SDS011;56517;51.634;5.566;2023-02-18T04:01:03;22.48;;;12.73;;
62268;SDS011;56517;51.634;5.566;2023-02-18T04:06:04;18.67;;;12.40;;
62268;SDS011;56517;51.634;5.566;2023-02-18T04:11:05;20.85;;;11.95;;
62268;SDS011;56517;51.634;5.566;2023-02-18T04:16:05;18.30;;;10.85;;
62268;SDS011;56517;51.634;5.566;2023-02-18T04:21:06;17.80;;;10.98;;
62268;SDS011;56517;51.634;5.566;2023-02-18T04:26:07;17.00;;;10.82;;
62268;SDS011;56517;51.634;5.566;2023-02-18T04:31:07;12.13;;;8.98;;
62268;SDS011;56517;51.634;5.566;2023-02-18T04:36:08;14.65;;;9.52;;
62268;SDS011;56517;51.634;5.566;2023-02-18T04:41:15;11.77;;;8.60;;
62268;SDS011;56517;51.634;5.566;2023-02-18T04:46:15;12.73;;;8.82;;
62268;SDS011;56517;51.634;5.566;2023-02-18T04:51:16;14.82;;;9.75;;
62268;SDS011;56517;51.634;5.566;2023-02-18T04:56:17;15.82;;;10.10;;
62268;SDS011;56517;51.634;5.566;2023-02-18T05:01:17;16.48;;;10.95;;
62268;SDS011;56517;51.634;5.566;2023-02-18T05:06:18;21.33;;;11.07;;
62268;SDS011;56517;51.634;5.566;2023-02-18T05:11:18;14.50;;;10.13;;
62268;SDS011;56517;51.634;5.566;2023-02-18T05:16:28;15.20;;;9.55;;
62268;SDS011;56517;51.634;5.566;2023-02-18T05:21:28;15.20;;;9.73;;
62268;SDS011;56517;51.634;5.566;2023-02-18T05:26:29;16.45;;;9.50;;
62268;SDS011;56517;51.634;5.566;2023-02-18T05:31:29;14.45;;;9.68;;
62268;SDS011;56517;51.634;5.566;2023-02-18T05:36:30;15.05;;;9.68;;
62268;SDS011;56517;51.634;5.566;2023-02-18T05:41:30;15.00;;;10.73;;
62268;SDS011;56517;51.634;5.566;2023-02-18T05:46:31;13.40;;;8.95;;
62268;SDS011;56517;51.634;5.566;2023-02-18T05:51:31;17.08;;;11.52;;
62268;SDS011;56517;51.634;5.566;2023-02-18T05:56:32;12.02;;;8.68;;
62268;SDS011;56517;51.634;5.566;2023-02-18T06:01:32;13.93;;;9.15;;
62268;SDS011;56517;51.634;5.566;2023-02-18T06:06:33;14.75;;;9.55;;
62268;SDS011;56517;51.634;5.566;2023-02-18T06:11:34;13.95;;;9.27;;
62268;SDS011;56517;51.634;5.566;2023-02-18T06:16:34;14.32;;;10.25;;
62268;SDS011;56517;51.634;5.566;2023-02-18T06:21:35;13.98;;;8.77;;
62268;SDS011;56517;51.634;5.566;2023-02-18T06:26:35;15.75;;;11.95;;
62268;SDS011;56517;51.634;5.566;2023-02-18T06:31:36;15.75;;;11.10;;
62268;SDS011;56517;51.634;5.566;2023-02-18T06:36:37;21.15;;;11.65;;
62268;SDS011;56517;51.634;5.566;2023-02-18T06:41:37;26.50;;;14.10;;
62268;SDS011;56517;51.634;5.566;2023-02-18T06:46:38;25.55;;;15.07;;
62268;SDS011;56517;51.634;5.566;2023-02-18T06:51:38;24.63;;;14.25;;
62268;SDS011;56517;51.634;5.566;2023-02-18T06:56:39;24.77;;;15.40;;
62268;SDS011;56517;51.634;5.566;2023-02-18T07:01:39;25.85;;;15.95;;
62268;SDS011;56517;51.634;5.566;2023-02-18T07:06:40;35.00;;;20.48;;
62268;SDS011;56517;51.634;5.566;2023-02-18T07:11:40;27.55;;;16.25;;
62268;SDS011;56517;51.634;5.566;2023-02-18T07:16:41;22.00;;;14.23;;
62268;SDS011;56517;51.634;5.566;2023-02-18T07:21:42;21.80;;;14.30;;
62268;SDS011;56517;51.634;5.566;2023-02-18T07:26:42;18.33;;;12.90;;
62268;SDS011;56517;51.634;5.566;2023-02-18T07:31:43;20.63;;;13.57;;
62268;SDS011;56517;51.634;5.566;2023-02-18T07:36:43;20.95;;;13.23;;
62268;SDS011;56517;51.634;5.566;2023-02-18T07:41:44;24.25;;;13.45;;
62268;SDS011;56517;51.634;5.566;2023-02-18T07:46:44;26.77;;;13.00;;
62268;SDS011;56517;51.634;5.566;2023-02-18T07:51:48;24.58;;;15.25;;
62268;SDS011;56517;51.634;5.566;2023-02-18T07:56:49;25.40;;;15.68;;
62268;SDS011;56517;51.634;5.566;2023-02-18T08:01:49;24.30;;;14.90;;
62268;SDS011;56517;51.634;5.566;2023-02-18T08:06:50;24.75;;;14.40;;
62268;SDS011;56517;51.634;5.566;2023-02-18T08:11:50;24.35;;;15.48;;
62268;SDS011;56517;51.634;5.566;2023-02-18T08:16:51;22.45;;;14.13;;
62268;SDS011;56517;51.634;5.566;2023-02-18T08:21:52;25.65;;;13.57;;
62268;SDS011;56517;51.634;5.566;2023-02-18T08:26:52;26.33;;;13.95;;
62268;SDS011;56517;51.634;5.566;2023-02-18T08:31:53;20.40;;;13.40;;
62268;SDS011;56517;51.634;5.566;2023-02-18T08:36:53;23.10;;;11.82;;
62268;SDS011;56517;51.634;5.566;2023-02-18T08:41:55;14.93;;;10.52;;
62268;SDS011;56517;51.634;5.566;2023-02-18T08:46:56;18.25;;;11.02;;
62268;SDS011;56517;51.634;5.566;2023-02-18T08:51:56;21.00;;;11.35;;
62268;SDS011;56517;51.634;5.566;2023-02-18T08:56:57;21.50;;;12.45;;
62268;SDS011;56517;51.634;5.566;2023-02-18T09:01:57;22.58;;;11.18;;
62268;SDS011;56517;51.634;5.566;2023-02-18T09:06:58;17.77;;;12.00;;
62268;SDS011;56517;51.634;5.566;2023-02-18T09:11:58;15.88;;;11.55;;
62268;SDS011;56517;51.634;5.566;2023-02-18T09:16:59;19.92;;;11.45;;
62268;SDS011;56517;51.634;5.566;2023-02-18T09:21:59;18.35;;;11.90;;
62268;SDS011;56517;51.634;5.566;2023-02-18T09:27:00;21.02;;;12.02;;
62268;SDS011;56517;51.634;5.566;2023-02-18T09:32:01;30.10;;;10.52;;
62268;SDS011;56517;51.634;5.566;2023-02-18T09:37:02;20.35;;;10.05;;
62268;SDS011;56517;51.634;5.566;2023-02-18T09:42:06;21.17;;;9.82;;
62268;SDS011;56517;51.634;5.566;2023-02-18T09:47:12;19.92;;;10.38;;
62268;SDS011;56517;51.634;5.566;2023-02-18T09:52:14;17.10;;;8.80;;
62268;SDS011;56517;51.634;5.566;2023-02-18T09:57:24;23.95;;;10.15;;
62268;SDS011;56517;51.634;5.566;2023-02-18T10:02:25;13.93;;;8.35;;
62268;SDS011;56517;51.634;5.566;2023-02-18T10:07:28;14.68;;;8.00;;
62268;SDS011;56517;51.634;5.566;2023-02-18T10:12:30;15.25;;;8.98;;
62268;SDS011;56517;51.634;5.566;2023-02-18T10:17:31;12.88;;;8.65;;
62268;SDS011;56517;51.634;5.566;2023-02-18T10:22:32;20.70;;;9.05;;
62268;SDS011;56517;51.634;5.566;2023-02-18T10:27:34;23.73;;;9.18;;
62268;SDS011;56517;51.634;5.566;2023-02-18T10:32:35;20.73;;;9.73;;
62268;SDS011;56517;51.634;5.566;2023-02-18T10:48:09;17.17;;;9.13;;
62268;SDS011;56517;51.634;5.566;2023-02-18T11:03:41;18.27;;;10.18;;
62268;SDS011;56517;51.634;5.566;2023-02-18T11:08:43;14.95;;;8.82;;
62268;SDS011;56517;51.634;5.566;2023-02-18T11:13:44;14.68;;;9.40;;
62268;SDS011;56517;51.634;5.566;2023-02-18T11:18:50;16.70;;;10.00;;
62268;SDS011;56517;51.634;5.566;2023-02-18T11:23:52;15.73;;;9.40;;
62268;SDS011;56517;51.634;5.566;2023-02-18T11:28:55;12.45;;;9.57;;
62268;SDS011;56517;51.634;5.566;2023-02-18T11:33:58;16.48;;;11.40;;
62268;SDS011;56517;51.634;5.566;2023-02-18T11:39:04;15.95;;;11.43;;
62268;SDS011;56517;51.634;5.566;2023-02-18T11:44:06;18.55;;;11.38;;
62268;SDS011;56517;51.634;5.566;2023-02-18T11:49:20;16.50;;;9.80;;
62268;SDS011;56517;51.634;5.566;2023-02-18T11:54:22;21.92;;;11.55;;
62268;SDS011;56517;51.634;5.566;2023-02-18T11:59:23;16.50;;;11.52;;
62268;SDS011;56517;51.634;5.566;2023-02-18T12:04:26;18.75;;;10.93;;
62268;SDS011;56517;51.634;5.566;2023-02-18T12:09:29;14.63;;;10.25;;
62268;SDS011;56517;51.634;5.566;2023-02-18T12:14:30;15.23;;;10.50;;
62268;SDS011;56517;51.634;5.566;2023-02-18T12:45:44;9.73;;;8.25;;
62268;SDS011;56517;51.634;5.566;2023-02-18T12:50:56;13.65;;;8.23;;
62268;SDS011;56517;51.634;5.566;2023-02-18T12:56:21;10.68;;;8.23;;
62268;SDS011;56517;51.634;5.566;2023-02-18T13:11:35;15.32;;;8.88;;
62268;SDS011;56517;51.634;5.566;2023-02-18T13:16:37;15.32;;;8.30;;
62268;SDS011;56517;51.634;5.566;2023-02-18T13:21:38;13.82;;;8.23;;
62268;SDS011;56517;51.634;5.566;2023-02-18T13:26:39;13.05;;;8.85;;
62268;SDS011;56517;51.634;5.566;2023-02-18T13:31:59;14.45;;;8.07;;
62268;SDS011;56517;51.634;5.566;2023-02-18T13:52:57;12.38;;;8.02;;
62268;SDS011;56517;51.634;5.566;2023-02-18T13:57:59;10.48;;;7.05;;
62268;SDS011;56517;51.634;5.566;2023-02-18T14:03:01;9.60;;;7.50;;
62268;SDS011;56517;51.634;5.566;2023-02-18T14:08:05;11.63;;;7.28;;
62268;SDS011;56517;51.634;5.566;2023-02-18T14:13:25;10.20;;;6.63;;
62268;SDS011;56517;51.634;5.566;2023-02-18T14:23:54;12.52;;;7.40;;
62268;SDS011;56517;51.634;5.566;2023-02-18T14:28:55;12.73;;;6.93;;
62268;SDS011;56517;51.634;5.566;2023-02-18T14:49:35;9.80;;;6.82;;
62268;SDS011;56517;51.634;5.566;2023-02-18T14:54:36;10.00;;;8.10;;
62268;SDS011;56517;51.634;5.566;2023-02-18T14:59:39;12.27;;;7.70;;
62268;SDS011;56517;51.634;5.566;2023-02-18T15:04:40;13.07;;;7.10;;
62268;SDS011;56517;51.634;5.566;2023-02-18T15:09:53;11.18;;;6.72;;
62268;SDS011;56517;51.634;5.566;2023-02-18T15:14:54;10.77;;;6.15;;
62268;SDS011;56517;51.634;5.566;2023-02-18T15:20:02;9.45;;;7.63;;
62268;SDS011;56517;51.634;5.566;2023-02-18T15:25:02;11.38;;;6.80;;
62268;SDS011;56517;51.634;5.566;2023-02-18T15:30:12;14.55;;;7.80;;
62268;SDS011;56517;51.634;5.566;2023-02-18T15:35:17;12.45;;;7.30;;
62268;SDS011;56517;51.634;5.566;2023-02-18T15:40:18;8.73;;;7.15;;
62268;SDS011;56517;51.634;5.566;2023-02-18T15:45:22;12.77;;;8.20;;
62268;SDS011;56517;51.634;5.566;2023-02-18T15:50:25;11.35;;;7.65;;
62268;SDS011;56517;51.634;5.566;2023-02-18T15:55:30;12.27;;;7.82;;
62268;SDS011;56517;51.634;5.566;2023-02-18T16:00:51;14.88;;;8.10;;
62268;SDS011;56517;51.634;5.566;2023-02-18T16:11:11;12.48;;;7.57;;
62268;SDS011;56517;51.634;5.566;2023-02-18T16:16:22;12.98;;;8.82;;
62268;SDS011;56517;51.634;5.566;2023-02-18T16:21:42;13.25;;;7.70;;
62268;SDS011;56517;51.634;5.566;2023-02-18T16:26:43;18.33;;;9.65;;
62268;SDS011;56517;51.634;5.566;2023-02-18T16:31:45;9.25;;;7.40;;
62268;SDS011;56517;51.634;5.566;2023-02-18T16:36:46;13.75;;;8.30;;
62268;SDS011;56517;51.634;5.566;2023-02-18T16:41:46;12.68;;;8.73;;
62268;SDS011;56517;51.634;5.566;2023-02-18T16:46:47;11.55;;;8.25;;
62268;SDS011;56517;51.634;5.566;2023-02-18T16:51:48;13.80;;;8.68;;
62268;SDS011;56517;51.634;5.566;2023-02-18T16:56:48;12.27;;;8.35;;
62268;SDS011;56517;51.634;5.566;2023-02-18T17:01:49;15.20;;;9.50;;
62268;SDS011;56517;51.634;5.566;2023-02-18T17:06:49;25.08;;;12.98;;
62268;SDS011;56517;51.634;5.566;2023-02-18T17:11:51;21.70;;;14.50;;
62268;SDS011;56517;51.634;5.566;2023-02-18T17:16:53;24.65;;;13.73;;
62268;SDS011;56517;51.634;5.566;2023-02-18T17:21:53;27.90;;;16.80;;
62268;SDS011;56517;51.634;5.566;2023-02-18T17:26:54;27.45;;;17.10;;
62268;SDS011;56517;51.634;5.566;2023-02-18T17:31:54;30.73;;;17.52;;
62268;SDS011;56517;51.634;5.566;2023-02-18T17:36:55;31.40;;;17.92;;
62268;SDS011;56517;51.634;5.566;2023-02-18T17:41:56;34.17;;;19.60;;
62268;SDS011;56517;51.634;5.566;2023-02-18T17:46:56;38.72;;;21.50;;
62268;SDS011;56517;51.634;5.566;2023-02-18T17:51:57;39.80;;;22.40;;
62268;SDS011;56517;51.634;5.566;2023-02-18T17:56:57;35.97;;;20.35;;
62268;SDS011;56517;51.634;5.566;2023-02-18T18:01:58;39.25;;;23.85;;
62268;SDS011;56517;51.634;5.566;2023-02-18T18:06:58;41.10;;;22.35;;
62268;SDS011;56517;51.634;5.566;2023-02-18T18:11:59;43.20;;;23.35;;
62268;SDS011;56517;51.634;5.566;2023-02-18T18:17:00;48.63;;;24.52;;
62268;SDS011;56517;51.634;5.566;2023-02-18T18:22:00;46.30;;;22.15;;
62268;SDS011;56517;51.634;5.566;2023-02-18T18:27:01;42.47;;;21.20;;
62268;SDS011;56517;51.634;5.566;2023-02-18T18:32:01;38.67;;;22.83;;
62268;SDS011;56517;51.634;5.566;2023-02-18T18:37:02;38.05;;;20.50;;
62268;SDS011;56517;51.634;5.566;2023-02-18T18:42:02;41.53;;;21.13;;
62268;SDS011;56517;51.634;5.566;2023-02-18T18:47:03;40.55;;;20.13;;
62268;SDS011;56517;51.634;5.566;2023-02-18T18:52:03;39.47;;;20.92;;
62268;SDS011;56517;51.634;5.566;2023-02-18T18:57:04;55.78;;;23.60;;
62268;SDS011;56517;51.634;5.566;2023-02-18T19:02:06;42.92;;;21.85;;
62268;SDS011;56517;51.634;5.566;2023-02-18T19:07:06;47.30;;;21.63;;
62268;SDS011;56517;51.634;5.566;2023-02-18T19:12:07;39.58;;;20.40;;
62268;SDS011;56517;51.634;5.566;2023-02-18T19:17:08;47.90;;;23.42;;
62268;SDS011;56517;51.634;5.566;2023-02-18T19:22:09;53.13;;;26.90;;
62268;SDS011;56517;51.634;5.566;2023-02-18T19:27:10;41.40;;;22.42;;
62268;SDS011;56517;51.634;5.566;2023-02-18T19:32:10;43.15;;;20.33;;
62268;SDS011;56517;51.634;5.566;2023-02-18T19:37:11;43.08;;;20.98;;
62268;SDS011;56517;51.634;5.566;2023-02-18T19:42:12;45.35;;;23.65;;
62268;SDS011;56517;51.634;5.566;2023-02-18T19:47:12;40.50;;;20.70;;
62268;SDS011;56517;51.634;5.566;2023-02-18T19:52:13;45.28;;;20.92;;
62268;SDS011;56517;51.634;5.566;2023-02-18T19:57:13;42.45;;;21.42;;
62268;SDS011;56517;51.634;5.566;2023-02-18T20:02:15;46.78;;;21.42;;
62268;SDS011;56517;51.634;5.566;2023-02-18T20:07:17;43.50;;;20.77;;
62268;SDS011;56517;51.634;5.566;2023-02-18T20:12:18;49.78;;;21.27;;
62268;SDS011;56517;51.634;5.566;2023-02-18T20:17:18;46.67;;;21.50;;
62268;SDS011;56517;51.634;5.566;2023-02-18T20:22:19;47.17;;;23.83;;
62268;SDS011;56517;51.634;5.566;2023-02-18T20:27:19;47.15;;;23.90;;
62268;SDS011;56517;51.634;5.566;2023-02-18T20:32:20;58.72;;;26.35;;
62268;SDS011;56517;51.634;5.566;2023-02-18T20:37:21;52.40;;;27.33;;
62268;SDS011;56517;51.634;5.566;2023-02-18T20:42:21;54.60;;;26.38;;
62268;SDS011;56517;51.634;5.566;2023-02-18T20:47:22;51.70;;;24.98;;
62268;SDS011;56517;51.634;5.566;2023-02-18T20:52:23;56.17;;;24.88;;
62268;SDS011;56517;51.634;5.566;2023-02-18T20:57:23;49.75;;;23.20;;
62268;SDS011;56517;51.634;5.566;2023-02-18T21:02:24;47.75;;;23.58;;
62268;SDS011;56517;51.634;5.566;2023-02-18T21:07:24;47.25;;;22.13;;
62268;SDS011;56517;51.634;5.566;2023-02-18T21:12:25;47.22;;;21.70;;
62268;SDS011;56517;51.634;5.566;2023-02-18T21:17:25;44.60;;;23.98;;
62268;SDS011;56517;51.634;5.566;2023-02-18T21:22:26;46.85;;;23.30;;
62268;SDS011;56517;51.634;5.566;2023-02-18T21:27:26;46.47;;;22.75;;
62268;SDS011;56517;51.634;5.566;2023-02-18T21:32:27;41.97;;;21.70;;
62268;SDS011;56517;51.634;5.566;2023-02-18T21:37:27;43.78;;;22.73;;
62268;SDS011;56517;51.634;5.566;2023-02-18T21:42:29;52.20;;;23.58;;
62268;SDS011;56517;51.634;5.566;2023-02-18T21:47:29;56.25;;;23.88;;
62268;SDS011;56517;51.634;5.566;2023-02-18T21:52:30;59.03;;;23.63;;
62268;SDS011;56517;51.634;5.566;2023-02-18T21:57:30;56.78;;;27.05;;
62268;SDS011;56517;51.634;5.566;2023-02-18T22:02:31;59.17;;;25.63;;
62268;SDS011;56517;51.634;5.566;2023-02-18T22:07:32;49.78;;;24.17;;
62268;SDS011;56517;51.634;5.566;2023-02-18T22:12:33;44.30;;;22.48;;
62268;SDS011;56517;51.634;5.566;2023-02-18T22:17:33;50.55;;;22.40;;
62268;SDS011;56517;51.634;5.566;2023-02-18T22:22:34;47.72;;;22.83;;
62268;SDS011;56517;51.634;5.566;2023-02-18T22:27:34;50.55;;;23.58;;
62268;SDS011;56517;51.634;5.566;2023-02-18T22:32:35;42.45;;;21.60;;
62268;SDS011;56517;51.634;5.566;2023-02-18T22:37:35;43.08;;;20.70;;
62268;SDS011;56517;51.634;5.566;2023-02-18T22:42:36;49.00;;;21.02;;
62268;SDS011;56517;51.634;5.566;2023-02-18T22:47:36;39.40;;;19.25;;
62268;SDS011;56517;51.634;5.566;2023-02-18T22:52:37;42.53;;;18.33;;
62268;SDS011;56517;51.634;5.566;2023-02-18T22:57:37;45.75;;;20.33;;
62268;SDS011;56517;51.634;5.566;2023-02-18T23:02:38;36.88;;;18.25;;
62268;SDS011;56517;51.634;5.566;2023-02-18T23:07:38;39.15;;;18.02;;
62268;SDS011;56517;51.634;5.566;2023-02-18T23:12:39;38.10;;;18.33;;
62268;SDS011;56517;51.634;5.566;2023-02-18T23:17:40;38.92;;;18.42;;
62268;SDS011;56517;51.634;5.566;2023-02-18T23:22:40;35.38;;;18.85;;
62268;SDS011;56517;51.634;5.566;2023-02-18T23:27:41;36.75;;;18.10;;
62268;SDS011;56517;51.634;5.566;2023-02-18T23:32:41;35.88;;;17.45;;
62268;SDS011;56517;51.634;5.566;2023-02-18T23:37:42;35.25;;;16.70;;
62268;SDS011;56517;51.634;5.566;2023-02-18T23:42:42;36.40;;;17.83;;
62268;SDS011;56517;51.634;5.566;2023-02-18T23:47:43;35.15;;;17.35;;
62268;SDS011;56517;51.634;5.566;2023-02-18T23:52:45;31.50;;;17.38;;
62268;SDS011;56517;51.634;5.566;2023-02-18T23:57:46;33.78;;;15.15;;
